sensor_id;sensor_type;location;lat;lon;timestamp;temperature;humidity
11532;DHT22;5822;51.000;5.874;2023-09-18T00:02:25;21.70;99.90
11532;DHT22;5822;51.000;5.874;2023-09-18T00:04:51;21.70;99.90
11532;DHT22;5822;51.000;5.874;2023-09-18T00:07:17;21.70;99.90
11532;DHT22;5822;51.000;5.874;2023-09-18T00:09:42;21.70;99.90
11532;DHT22;5822;51.000;5.874;2023-09-18T00:12:08;21.70;99.90
11532;DHT22;5822;51.000;5.874;2023-09-18T00:14:35;21.70;99.90
11532;DHT22;5822;51.000;5.874;2023-09-18T00:17:01;21.70;99.90
11532;DHT22;5822;51.000;5.874;2023-09-18T00:19:27;21.70;99.90
11532;DHT22;5822;51.000;5.874;2023-09-18T00:21:53;21.70;99.90
11532;DHT22;5822;51.000;5.874;2023-09-18T00:24:20;21.70;99.90
11532;DHT22;5822;51.000;5.874;2023-09-18T00:26:47;21.60;99.90
11532;DHT22;5822;51.000;5.874;2023-09-18T00:29:13;21.60;99.90
11532;DHT22;5822;51.000;5.874;2023-09-18T00:31:39;21.60;99.90
11532;DHT22;5822;51.000;5.874;2023-09-18T00:34:05;21.60;99.90
11532;DHT22;5822;51.000;5.874;2023-09-18T00:36:30;21.60;99.90
11532;DHT22;5822;51.000;5.874;2023-09-18T00:38:56;21.60;99.90
11532;DHT22;5822;51.000;5.874;2023-09-18T00:41:21;21.60;99.90
11532;DHT22;5822;51.000;5.874;2023-09-18T00:43:47;21.60;99.90
11532;DHT22;5822;51.000;5.874;2023-09-18T00:46:13;21.60;99.90
11532;DHT22;5822;51.000;5.874;2023-09-18T00:48:39;21.60;99.90
11532;DHT22;5822;51.000;5.874;2023-09-18T00:51:06;21.60;99.90
11532;DHT22;5822;51.000;5.874;2023-09-18T00:53:33;21.50;99.90
11532;DHT22;5822;51.000;5.874;2023-09-18T00:56:00;21.60;99.90
11532;DHT22;5822;51.000;5.874;2023-09-18T00:58:27;21.60;99.90
11532;DHT22;5822;51.000;5.874;2023-09-18T01:00:53;21.50;99.90
11532;DHT22;5822;51.000;5.874;2023-09-18T01:03:20;21.50;99.90
11532;DHT22;5822;51.000;5.874;2023-09-18T01:05:46;21.60;99.90
11532;DHT22;5822;51.000;5.874;2023-09-18T01:08:12;21.50;99.90
11532;DHT22;5822;51.000;5.874;2023-09-18T01:11:04;21.50;99.90
11532;DHT22;5822;51.000;5.874;2023-09-18T01:13:49;21.50;99.90
11532;DHT22;5822;51.000;5.874;2023-09-18T01:16:25;21.50;99.90
11532;DHT22;5822;51.000;5.874;2023-09-18T01:18:52;21.60;99.90
11532;DHT22;5822;51.000;5.874;2023-09-18T01:21:21;21.50;99.90
11532;DHT22;5822;51.000;5.874;2023-09-18T01:23:47;21.60;99.90
11532;DHT22;5822;51.000;5.874;2023-09-18T01:26:14;21.50;99.90
11532;DHT22;5822;51.000;5.874;2023-09-18T01:28:40;21.50;99.90
11532;DHT22;5822;51.000;5.874;2023-09-18T01:31:05;21.50;99.90
11532;DHT22;5822;51.000;5.874;2023-09-18T01:33:32;21.50;99.90
11532;DHT22;5822;51.000;5.874;2023-09-18T01:35:59;21.50;99.90
11532;DHT22;5822;51.000;5.874;2023-09-18T01:38:26;21.50;99.90
11532;DHT22;5822;51.000;5.874;2023-09-18T01:40:53;21.50;99.90
11532;DHT22;5822;51.000;5.874;2023-09-18T01:43:20;21.40;99.90
11532;DHT22;5822;51.000;5.874;2023-09-18T01:45:46;21.50;99.90
11532;DHT22;5822;51.000;5.874;2023-09-18T01:48:13;21.40;99.90
11532;DHT22;5822;51.000;5.874;2023-09-18T01:50:39;21.40;99.90
11532;DHT22;5822;51.000;5.874;2023-09-18T01:53:07;21.40;99.90
11532;DHT22;5822;51.000;5.874;2023-09-18T01:55:33;21.40;99.90
11532;DHT22;5822;51.000;5.874;2023-09-18T01:57:59;21.40;99.90
11532;DHT22;5822;51.000;5.874;2023-09-18T02:00:24;21.50;99.90
11532;DHT22;5822;51.000;5.874;2023-09-18T02:02:50;21.50;99.90
11532;DHT22;5822;51.000;5.874;2023-09-18T02:05:16;21.50;99.90
11532;DHT22;5822;51.000;5.874;2023-09-18T02:07:42;21.40;99.90
11532;DHT22;5822;51.000;5.874;2023-09-18T02:10:08;21.50;99.90
11532;DHT22;5822;51.000;5.874;2023-09-18T02:12:33;21.50;99.90
11532;DHT22;5822;51.000;5.874;2023-09-18T02:14:59;21.50;99.90
11532;DHT22;5822;51.000;5.874;2023-09-18T02:17:30;21.50;99.90
11532;DHT22;5822;51.000;5.874;2023-09-18T02:19:55;21.50;99.90
11532;DHT22;5822;51.000;5.874;2023-09-18T02:22:21;21.50;99.90
11532;DHT22;5822;51.000;5.874;2023-09-18T02:24:47;21.40;99.90
11532;DHT22;5822;51.000;5.874;2023-09-18T02:27:12;21.40;99.90
11532;DHT22;5822;51.000;5.874;2023-09-18T02:29:38;21.40;99.90
11532;DHT22;5822;51.000;5.874;2023-09-18T02:32:04;21.40;99.90
11532;DHT22;5822;51.000;5.874;2023-09-18T02:34:29;21.50;99.90
11532;DHT22;5822;51.000;5.874;2023-09-18T02:36:55;21.50;99.90
11532;DHT22;5822;51.000;5.874;2023-09-18T02:39:21;21.60;99.90
11532;DHT22;5822;51.000;5.874;2023-09-18T02:41:46;21.60;99.90
11532;DHT22;5822;51.000;5.874;2023-09-18T02:44:12;21.60;99.90
11532;DHT22;5822;51.000;5.874;2023-09-18T02:46:38;21.60;99.90
11532;DHT22;5822;51.000;5.874;2023-09-18T02:49:04;21.60;99.90
11532;DHT22;5822;51.000;5.874;2023-09-18T02:51:29;21.60;99.90
11532;DHT22;5822;51.000;5.874;2023-09-18T02:53:57;21.60;99.90
11532;DHT22;5822;51.000;5.874;2023-09-18T02:56:23;21.60;99.90
11532;DHT22;5822;51.000;5.874;2023-09-18T02:58:57;21.60;99.90
11532;DHT22;5822;51.000;5.874;2023-09-18T03:01:32;21.60;99.90
11532;DHT22;5822;51.000;5.874;2023-09-18T03:04:04;21.70;99.90
11532;DHT22;5822;51.000;5.874;2023-09-18T03:06:30;21.70;99.90
11532;DHT22;5822;51.000;5.874;2023-09-18T03:08:56;21.70;99.90
11532;DHT22;5822;51.000;5.874;2023-09-18T03:11:21;21.70;99.90
11532;DHT22;5822;51.000;5.874;2023-09-18T03:13:47;21.70;99.90
11532;DHT22;5822;51.000;5.874;2023-09-18T03:16:13;21.70;99.90
11532;DHT22;5822;51.000;5.874;2023-09-18T03:18:39;21.70;99.90
11532;DHT22;5822;51.000;5.874;2023-09-18T03:21:05;21.70;99.90
11532;DHT22;5822;51.000;5.874;2023-09-18T03:23:30;21.70;99.90
11532;DHT22;5822;51.000;5.874;2023-09-18T03:25:56;21.70;99.90
11532;DHT22;5822;51.000;5.874;2023-09-18T03:28:22;21.70;99.90
11532;DHT22;5822;51.000;5.874;2023-09-18T03:30:47;21.70;99.90
11532;DHT22;5822;51.000;5.874;2023-09-18T03:33:13;21.70;99.90
11532;DHT22;5822;51.000;5.874;2023-09-18T03:35:49;21.70;99.90
11532;DHT22;5822;51.000;5.874;2023-09-18T03:38:15;21.70;99.90
11532;DHT22;5822;51.000;5.874;2023-09-18T03:40:41;21.70;99.90
11532;DHT22;5822;51.000;5.874;2023-09-18T03:43:07;21.70;99.90
11532;DHT22;5822;51.000;5.874;2023-09-18T03:45:32;21.70;99.90
11532;DHT22;5822;51.000;5.874;2023-09-18T03:47:58;21.70;99.90
11532;DHT22;5822;51.000;5.874;2023-09-18T03:50:24;21.70;99.90
11532;DHT22;5822;51.000;5.874;2023-09-18T03:52:49;21.70;99.90
11532;DHT22;5822;51.000;5.874;2023-09-18T03:55:15;21.70;99.90
11532;DHT22;5822;51.000;5.874;2023-09-18T03:57:42;21.70;99.90
11532;DHT22;5822;51.000;5.874;2023-09-18T04:00:09;21.70;99.90
11532;DHT22;5822;51.000;5.874;2023-09-18T04:02:34;21.70;99.90
11532;DHT22;5822;51.000;5.874;2023-09-18T04:05:00;21.70;99.90
11532;DHT22;5822;51.000;5.874;2023-09-18T04:07:26;21.60;99.90
11532;DHT22;5822;51.000;5.874;2023-09-18T04:09:52;21.60;99.90
11532;DHT22;5822;51.000;5.874;2023-09-18T04:12:17;21.60;99.90
11532;DHT22;5822;51.000;5.874;2023-09-18T04:14:43;21.60;99.90
11532;DHT22;5822;51.000;5.874;2023-09-18T04:17:09;21.60;99.90
11532;DHT22;5822;51.000;5.874;2023-09-18T04:19:35;21.60;99.90
11532;DHT22;5822;51.000;5.874;2023-09-18T04:22:01;21.60;99.90
11532;DHT22;5822;51.000;5.874;2023-09-18T04:24:26;21.60;99.90
11532;DHT22;5822;51.000;5.874;2023-09-18T04:26:52;21.60;99.90
11532;DHT22;5822;51.000;5.874;2023-09-18T04:29:19;21.50;99.90
11532;DHT22;5822;51.000;5.874;2023-09-18T04:31:45;21.60;99.90
11532;DHT22;5822;51.000;5.874;2023-09-18T04:34:11;21.50;99.90
11532;DHT22;5822;51.000;5.874;2023-09-18T04:36:37;21.50;99.90
11532;DHT22;5822;51.000;5.874;2023-09-18T04:39:04;21.50;99.90
11532;DHT22;5822;51.000;5.874;2023-09-18T04:41:30;21.50;99.90
11532;DHT22;5822;51.000;5.874;2023-09-18T04:43:56;21.50;99.90
11532;DHT22;5822;51.000;5.874;2023-09-18T04:46:22;21.50;99.90
11532;DHT22;5822;51.000;5.874;2023-09-18T04:48:49;21.50;99.90
11532;DHT22;5822;51.000;5.874;2023-09-18T04:51:14;21.50;99.90
11532;DHT22;5822;51.000;5.874;2023-09-18T04:53:40;21.50;99.90
11532;DHT22;5822;51.000;5.874;2023-09-18T04:56:06;21.50;99.90
11532;DHT22;5822;51.000;5.874;2023-09-18T04:58:32;21.50;99.90
11532;DHT22;5822;51.000;5.874;2023-09-18T05:00:59;21.50;99.90
11532;DHT22;5822;51.000;5.874;2023-09-18T05:03:26;21.50;99.90
11532;DHT22;5822;51.000;5.874;2023-09-18T05:05:54;21.60;99.90
11532;DHT22;5822;51.000;5.874;2023-09-18T05:08:20;21.50;99.90
11532;DHT22;5822;51.000;5.874;2023-09-18T05:10:46;21.50;99.90
11532;DHT22;5822;51.000;5.874;2023-09-18T05:13:13;21.50;99.90
11532;DHT22;5822;51.000;5.874;2023-09-18T05:15:38;21.50;99.90
11532;DHT22;5822;51.000;5.874;2023-09-18T05:18:04;21.50;99.90
11532;DHT22;5822;51.000;5.874;2023-09-18T05:20:31;21.50;99.90
11532;DHT22;5822;51.000;5.874;2023-09-18T05:22:58;21.50;99.90
11532;DHT22;5822;51.000;5.874;2023-09-18T05:25:26;21.50;99.90
11532;DHT22;5822;51.000;5.874;2023-09-18T05:27:53;21.60;99.90
11532;DHT22;5822;51.000;5.874;2023-09-18T05:30:27;21.50;99.90
11532;DHT22;5822;51.000;5.874;2023-09-18T05:32:54;21.50;99.90
11532;DHT22;5822;51.000;5.874;2023-09-18T05:35:20;21.50;99.90
11532;DHT22;5822;51.000;5.874;2023-09-18T05:37:47;21.50;99.90
11532;DHT22;5822;51.000;5.874;2023-09-18T05:40:13;21.40;99.90
11532;DHT22;5822;51.000;5.874;2023-09-18T05:42:41;21.50;99.90
11532;DHT22;5822;51.000;5.874;2023-09-18T05:45:14;21.50;99.90
11532;DHT22;5822;51.000;5.874;2023-09-18T05:47:41;21.40;99.90
11532;DHT22;5822;51.000;5.874;2023-09-18T05:50:09;21.40;99.90
11532;DHT22;5822;51.000;5.874;2023-09-18T05:52:35;21.40;99.90
11532;DHT22;5822;51.000;5.874;2023-09-18T05:55:02;21.40;99.90
11532;DHT22;5822;51.000;5.874;2023-09-18T05:57:28;21.50;99.90
11532;DHT22;5822;51.000;5.874;2023-09-18T05:59:57;21.40;99.90
11532;DHT22;5822;51.000;5.874;2023-09-18T06:02:23;21.40;99.90
11532;DHT22;5822;51.000;5.874;2023-09-18T06:04:54;21.50;99.90
11532;DHT22;5822;51.000;5.874;2023-09-18T06:07:21;21.50;99.90
11532;DHT22;5822;51.000;5.874;2023-09-18T06:09:48;21.50;99.90
11532;DHT22;5822;51.000;5.874;2023-09-18T06:12:14;21.50;99.90
11532;DHT22;5822;51.000;5.874;2023-09-18T06:14:39;21.50;99.90
11532;DHT22;5822;51.000;5.874;2023-09-18T06:17:05;21.40;99.90
11532;DHT22;5822;51.000;5.874;2023-09-18T06:19:31;21.40;99.90
11532;DHT22;5822;51.000;5.874;2023-09-18T06:21:58;21.40;99.90
11532;DHT22;5822;51.000;5.874;2023-09-18T06:24:24;21.40;99.90
11532;DHT22;5822;51.000;5.874;2023-09-18T06:26:49;21.40;99.90
11532;DHT22;5822;51.000;5.874;2023-09-18T06:29:16;21.40;99.90
11532;DHT22;5822;51.000;5.874;2023-09-18T06:31:42;21.50;99.90
11532;DHT22;5822;51.000;5.874;2023-09-18T06:34:07;21.40;99.90
11532;DHT22;5822;51.000;5.874;2023-09-18T06:36:33;21.40;99.90
11532;DHT22;5822;51.000;5.874;2023-09-18T06:38:59;21.50;99.90
11532;DHT22;5822;51.000;5.874;2023-09-18T06:41:24;21.50;99.90
11532;DHT22;5822;51.000;5.874;2023-09-18T06:43:50;21.50;99.90
11532;DHT22;5822;51.000;5.874;2023-09-18T06:46:16;21.40;99.90
11532;DHT22;5822;51.000;5.874;2023-09-18T06:48:41;21.50;99.90
11532;DHT22;5822;51.000;5.874;2023-09-18T06:51:11;21.50;99.90
11532;DHT22;5822;51.000;5.874;2023-09-18T06:53:36;21.50;99.90
11532;DHT22;5822;51.000;5.874;2023-09-18T06:56:02;21.50;99.90
11532;DHT22;5822;51.000;5.874;2023-09-18T06:58:28;21.50;99.90
11532;DHT22;5822;51.000;5.874;2023-09-18T07:00:53;21.50;99.90
11532;DHT22;5822;51.000;5.874;2023-09-18T07:03:19;21.50;99.90
11532;DHT22;5822;51.000;5.874;2023-09-18T07:05:45;21.60;99.90
11532;DHT22;5822;51.000;5.874;2023-09-18T07:08:11;21.60;99.90
11532;DHT22;5822;51.000;5.874;2023-09-18T07:10:38;21.60;99.90
11532;DHT22;5822;51.000;5.874;2023-09-18T07:13:05;21.60;99.90
11532;DHT22;5822;51.000;5.874;2023-09-18T07:15:30;21.60;99.90
11532;DHT22;5822;51.000;5.874;2023-09-18T07:17:56;21.60;99.90
11532;DHT22;5822;51.000;5.874;2023-09-18T07:20:22;21.60;99.90
11532;DHT22;5822;51.000;5.874;2023-09-18T07:22:49;21.60;99.90
11532;DHT22;5822;51.000;5.874;2023-09-18T07:25:16;21.50;99.90
11532;DHT22;5822;51.000;5.874;2023-09-18T07:27:42;21.50;99.90
11532;DHT22;5822;51.000;5.874;2023-09-18T07:30:10;21.50;99.90
11532;DHT22;5822;51.000;5.874;2023-09-18T07:32:38;21.60;99.90
11532;DHT22;5822;51.000;5.874;2023-09-18T07:35:08;21.60;99.90
11532;DHT22;5822;51.000;5.874;2023-09-18T07:37:35;21.60;99.90
11532;DHT22;5822;51.000;5.874;2023-09-18T07:40:05;21.60;99.90
11532;DHT22;5822;51.000;5.874;2023-09-18T07:42:31;21.60;99.90
11532;DHT22;5822;51.000;5.874;2023-09-18T07:44:57;21.60;99.90
11532;DHT22;5822;51.000;5.874;2023-09-18T07:47:22;21.60;99.90
11532;DHT22;5822;51.000;5.874;2023-09-18T07:49:48;21.60;99.90
11532;DHT22;5822;51.000;5.874;2023-09-18T07:52:14;21.60;99.90
11532;DHT22;5822;51.000;5.874;2023-09-18T07:54:42;21.70;99.90
11532;DHT22;5822;51.000;5.874;2023-09-18T07:57:08;21.70;99.90
11532;DHT22;5822;51.000;5.874;2023-09-18T07:59:35;21.70;99.90
11532;DHT22;5822;51.000;5.874;2023-09-18T08:02:02;21.70;99.90
11532;DHT22;5822;51.000;5.874;2023-09-18T08:04:27;21.70;99.90
11532;DHT22;5822;51.000;5.874;2023-09-18T08:06:53;21.70;99.90
11532;DHT22;5822;51.000;5.874;2023-09-18T08:09:18;21.70;99.90
11532;DHT22;5822;51.000;5.874;2023-09-18T08:11:44;21.70;99.90
11532;DHT22;5822;51.000;5.874;2023-09-18T08:14:10;21.70;99.90
11532;DHT22;5822;51.000;5.874;2023-09-18T08:16:38;21.70;99.90
11532;DHT22;5822;51.000;5.874;2023-09-18T08:19:04;21.80;99.90
11532;DHT22;5822;51.000;5.874;2023-09-18T08:21:29;21.80;99.90
11532;DHT22;5822;51.000;5.874;2023-09-18T08:23:55;21.80;99.90
11532;DHT22;5822;51.000;5.874;2023-09-18T08:26:24;21.10;99.90
11532;DHT22;5822;51.000;5.874;2023-09-18T08:28:51;21.80;99.90
11532;DHT22;5822;51.000;5.874;2023-09-18T08:31:16;21.80;99.90
11532;DHT22;5822;51.000;5.874;2023-09-18T08:33:45;21.80;99.90
11532;DHT22;5822;51.000;5.874;2023-09-18T08:36:11;21.90;99.90
11532;DHT22;5822;51.000;5.874;2023-09-18T08:38:38;21.90;99.90
11532;DHT22;5822;51.000;5.874;2023-09-18T08:41:03;21.90;99.90
11532;DHT22;5822;51.000;5.874;2023-09-18T08:43:32;21.90;99.90
11532;DHT22;5822;51.000;5.874;2023-09-18T08:45:57;21.90;99.90
11532;DHT22;5822;51.000;5.874;2023-09-18T08:48:28;21.90;99.90
11532;DHT22;5822;51.000;5.874;2023-09-18T08:51:02;21.90;99.90
11532;DHT22;5822;51.000;5.874;2023-09-18T08:53:31;22.00;99.90
11532;DHT22;5822;51.000;5.874;2023-09-18T08:55:58;22.00;99.90
11532;DHT22;5822;51.000;5.874;2023-09-18T08:58:28;22.00;99.90
11532;DHT22;5822;51.000;5.874;2023-09-18T09:00:55;22.00;99.90
11532;DHT22;5822;51.000;5.874;2023-09-18T09:03:21;22.00;99.90
11532;DHT22;5822;51.000;5.874;2023-09-18T09:05:47;22.00;99.90
11532;DHT22;5822;51.000;5.874;2023-09-18T09:08:13;21.90;99.90
11532;DHT22;5822;51.000;5.874;2023-09-18T09:10:40;21.90;99.90
11532;DHT22;5822;51.000;5.874;2023-09-18T09:13:06;21.90;99.90
11532;DHT22;5822;51.000;5.874;2023-09-18T09:15:42;21.90;99.90
11532;DHT22;5822;51.000;5.874;2023-09-18T09:18:11;21.80;99.90
11532;DHT22;5822;51.000;5.874;2023-09-18T09:20:38;21.80;99.90
11532;DHT22;5822;51.000;5.874;2023-09-18T09:23:07;21.80;99.90
11532;DHT22;5822;51.000;5.874;2023-09-18T09:25:34;21.80;99.90
11532;DHT22;5822;51.000;5.874;2023-09-18T09:28:04;21.80;99.90
11532;DHT22;5822;51.000;5.874;2023-09-18T09:30:31;21.80;99.90
11532;DHT22;5822;51.000;5.874;2023-09-18T09:32:58;21.80;99.90
11532;DHT22;5822;51.000;5.874;2023-09-18T09:35:32;21.80;99.90
11532;DHT22;5822;51.000;5.874;2023-09-18T09:38:10;21.80;99.90
11532;DHT22;5822;51.000;5.874;2023-09-18T09:40:39;21.80;99.90
11532;DHT22;5822;51.000;5.874;2023-09-18T09:43:13;21.90;99.90
11532;DHT22;5822;51.000;5.874;2023-09-18T09:45:41;21.90;99.90
11532;DHT22;5822;51.000;5.874;2023-09-18T09:48:07;21.90;99.90
11532;DHT22;5822;51.000;5.874;2023-09-18T09:50:44;21.90;99.90
11532;DHT22;5822;51.000;5.874;2023-09-18T09:53:12;21.90;99.90
11532;DHT22;5822;51.000;5.874;2023-09-18T09:55:38;21.90;99.90
11532;DHT22;5822;51.000;5.874;2023-09-18T09:58:05;21.90;99.90
11532;DHT22;5822;51.000;5.874;2023-09-18T10:00:41;21.90;99.90
11532;DHT22;5822;51.000;5.874;2023-09-18T10:03:13;22.00;99.90
11532;DHT22;5822;51.000;5.874;2023-09-18T10:05:43;22.00;99.90
11532;DHT22;5822;51.000;5.874;2023-09-18T10:08:14;22.00;99.90
11532;DHT22;5822;51.000;5.874;2023-09-18T10:10:47;22.00;99.90
11532;DHT22;5822;51.000;5.874;2023-09-18T10:13:20;22.10;99.90
11532;DHT22;5822;51.000;5.874;2023-09-18T10:15:49;22.20;99.90
11532;DHT22;5822;51.000;5.874;2023-09-18T10:26:35;22.30;99.90
11532;DHT22;5822;51.000;5.874;2023-09-18T10:29:04;22.30;99.90
11532;DHT22;5822;51.000;5.874;2023-09-18T10:31:34;22.40;99.90
11532;DHT22;5822;51.000;5.874;2023-09-18T10:34:03;22.40;99.90
11532;DHT22;5822;51.000;5.874;2023-09-18T10:36:31;22.50;99.90
11532;DHT22;5822;51.000;5.874;2023-09-18T10:38:58;22.50;99.90
11532;DHT22;5822;51.000;5.874;2023-09-18T10:41:26;22.50;99.90
11532;DHT22;5822;51.000;5.874;2023-09-18T10:43:54;22.60;99.90
11532;DHT22;5822;51.000;5.874;2023-09-18T10:46:23;22.60;99.90
11532;DHT22;5822;51.000;5.874;2023-09-18T10:48:50;22.60;99.90
11532;DHT22;5822;51.000;5.874;2023-09-18T10:51:20;22.60;99.90
11532;DHT22;5822;51.000;5.874;2023-09-18T10:53:47;22.60;99.90
11532;DHT22;5822;51.000;5.874;2023-09-18T10:56:17;22.60;99.90
11532;DHT22;5822;51.000;5.874;2023-09-18T10:58:43;22.60;99.90
11532;DHT22;5822;51.000;5.874;2023-09-18T11:01:11;22.60;99.90
11532;DHT22;5822;51.000;5.874;2023-09-18T11:03:38;22.60;99.90
11532;DHT22;5822;51.000;5.874;2023-09-18T11:06:06;22.60;99.90
11532;DHT22;5822;51.000;5.874;2023-09-18T11:08:33;22.60;99.90
11532;DHT22;5822;51.000;5.874;2023-09-18T11:11:07;22.60;99.90
11532;DHT22;5822;51.000;5.874;2023-09-18T11:13:43;22.60;99.90
11532;DHT22;5822;51.000;5.874;2023-09-18T11:19:08;22.60;99.90
11532;DHT22;5822;51.000;5.874;2023-09-18T11:21:35;22.60;99.90
11532;DHT22;5822;51.000;5.874;2023-09-18T11:24:01;22.60;99.90
11532;DHT22;5822;51.000;5.874;2023-09-18T11:26:30;22.70;99.90
11532;DHT22;5822;51.000;5.874;2023-09-18T11:28:59;22.70;99.90
11532;DHT22;5822;51.000;5.874;2023-09-18T11:34:24;22.80;99.90
11532;DHT22;5822;51.000;5.874;2023-09-18T11:37:21;22.80;99.90
11532;DHT22;5822;51.000;5.874;2023-09-18T11:39:47;22.80;99.90
11532;DHT22;5822;51.000;5.874;2023-09-18T11:42:17;22.80;99.90
11532;DHT22;5822;51.000;5.874;2023-09-18T11:44:43;22.70;99.90
11532;DHT22;5822;51.000;5.874;2023-09-18T11:47:13;22.70;99.90
11532;DHT22;5822;51.000;5.874;2023-09-18T11:49:51;22.70;99.90
11532;DHT22;5822;51.000;5.874;2023-09-18T11:52:24;22.70;99.90
11532;DHT22;5822;51.000;5.874;2023-09-18T11:54:50;22.60;99.90
11532;DHT22;5822;51.000;5.874;2023-09-18T11:57:17;22.60;99.90
11532;DHT22;5822;51.000;5.874;2023-09-18T11:59:44;22.60;99.90
11532;DHT22;5822;51.000;5.874;2023-09-18T12:02:33;22.60;99.90
11532;DHT22;5822;51.000;5.874;2023-09-18T12:05:17;22.60;99.90
11532;DHT22;5822;51.000;5.874;2023-09-18T12:07:45;22.70;99.90
11532;DHT22;5822;51.000;5.874;2023-09-18T12:10:15;22.70;99.90
11532;DHT22;5822;51.000;5.874;2023-09-18T12:12:43;22.70;99.90
11532;DHT22;5822;51.000;5.874;2023-09-18T12:15:21;22.70;99.90
11532;DHT22;5822;51.000;5.874;2023-09-18T12:17:48;22.70;99.90
11532;DHT22;5822;51.000;5.874;2023-09-18T12:20:19;22.70;99.90
11532;DHT22;5822;51.000;5.874;2023-09-18T12:22:48;22.80;99.90
11532;DHT22;5822;51.000;5.874;2023-09-18T12:25:15;22.80;99.90
11532;DHT22;5822;51.000;5.874;2023-09-18T12:27:41;22.80;99.90
11532;DHT22;5822;51.000;5.874;2023-09-18T12:30:08;22.80;99.90
11532;DHT22;5822;51.000;5.874;2023-09-18T12:32:36;22.80;99.90
11532;DHT22;5822;51.000;5.874;2023-09-18T12:35:02;22.80;99.90
11532;DHT22;5822;51.000;5.874;2023-09-18T12:37:35;22.80;99.90
11532;DHT22;5822;51.000;5.874;2023-09-18T12:40:04;22.80;99.90
11532;DHT22;5822;51.000;5.874;2023-09-18T12:42:36;22.80;99.90
11532;DHT22;5822;51.000;5.874;2023-09-18T12:45:06;22.80;99.90
11532;DHT22;5822;51.000;5.874;2023-09-18T12:47:33;22.80;99.90
11532;DHT22;5822;51.000;5.874;2023-09-18T12:50:06;22.80;99.90
11532;DHT22;5822;51.000;5.874;2023-09-18T12:52:36;22.70;99.90
11532;DHT22;5822;51.000;5.874;2023-09-18T12:55:02;22.80;99.90
11532;DHT22;5822;51.000;5.874;2023-09-18T12:57:34;22.80;99.90
11532;DHT22;5822;51.000;5.874;2023-09-18T13:00:07;22.80;99.90
11532;DHT22;5822;51.000;5.874;2023-09-18T13:02:36;22.80;99.90
11532;DHT22;5822;51.000;5.874;2023-09-18T13:05:02;22.80;99.90
11532;DHT22;5822;51.000;5.874;2023-09-18T13:07:29;22.80;99.90
11532;DHT22;5822;51.000;5.874;2023-09-18T13:09:59;22.80;99.90
11532;DHT22;5822;51.000;5.874;2023-09-18T13:12:38;22.80;99.90
11532;DHT22;5822;51.000;5.874;2023-09-18T13:15:04;22.90;99.90
11532;DHT22;5822;51.000;5.874;2023-09-18T13:17:42;22.80;99.90
11532;DHT22;5822;51.000;5.874;2023-09-18T13:20:25;22.80;99.90
11532;DHT22;5822;51.000;5.874;2023-09-18T13:22:58;22.80;99.90
11532;DHT22;5822;51.000;5.874;2023-09-18T13:25:38;22.80;99.90
11532;DHT22;5822;51.000;5.874;2023-09-18T13:28:07;22.80;99.90
11532;DHT22;5822;51.000;5.874;2023-09-18T13:30:35;22.90;99.90
11532;DHT22;5822;51.000;5.874;2023-09-18T13:35:31;23.00;99.90
11532;DHT22;5822;51.000;5.874;2023-09-18T13:37:57;23.00;99.90
11532;DHT22;5822;51.000;5.874;2023-09-18T13:40:23;23.00;99.90
11532;DHT22;5822;51.000;5.874;2023-09-18T13:42:49;22.90;99.90
11532;DHT22;5822;51.000;5.874;2023-09-18T13:45:14;22.90;99.90
11532;DHT22;5822;51.000;5.874;2023-09-18T13:47:42;22.90;99.90
11532;DHT22;5822;51.000;5.874;2023-09-18T13:50:08;22.90;99.90
11532;DHT22;5822;51.000;5.874;2023-09-18T13:52:36;22.90;99.90
11532;DHT22;5822;51.000;5.874;2023-09-18T13:55:03;23.00;99.90
11532;DHT22;5822;51.000;5.874;2023-09-18T13:57:31;23.10;99.90
11532;DHT22;5822;51.000;5.874;2023-09-18T13:59:57;23.20;99.90
11532;DHT22;5822;51.000;5.874;2023-09-18T14:02:22;23.20;99.90
11532;DHT22;5822;51.000;5.874;2023-09-18T14:04:52;23.30;99.90
11532;DHT22;5822;51.000;5.874;2023-09-18T14:07:18;23.50;99.90
11532;DHT22;5822;51.000;5.874;2023-09-18T14:09:44;23.50;99.90
11532;DHT22;5822;51.000;5.874;2023-09-18T14:12:12;23.50;99.90
11532;DHT22;5822;51.000;5.874;2023-09-18T14:14:37;23.50;99.90
11532;DHT22;5822;51.000;5.874;2023-09-18T14:17:05;23.60;99.90
11532;DHT22;5822;51.000;5.874;2023-09-18T14:19:31;23.60;99.90
11532;DHT22;5822;51.000;5.874;2023-09-18T14:21:57;23.60;99.90
11532;DHT22;5822;51.000;5.874;2023-09-18T14:24:23;23.70;99.90
11532;DHT22;5822;51.000;5.874;2023-09-18T14:26:54;23.70;99.90
11532;DHT22;5822;51.000;5.874;2023-09-18T14:29:20;23.70;99.90
11532;DHT22;5822;51.000;5.874;2023-09-18T14:31:46;23.80;99.90
11532;DHT22;5822;51.000;5.874;2023-09-18T14:34:12;23.70;99.90
11532;DHT22;5822;51.000;5.874;2023-09-18T14:36:38;23.80;99.90
11532;DHT22;5822;51.000;5.874;2023-09-18T14:39:06;23.80;99.90
11532;DHT22;5822;51.000;5.874;2023-09-18T14:41:38;23.90;99.90
11532;DHT22;5822;51.000;5.874;2023-09-18T14:44:05;24.00;99.90
11532;DHT22;5822;51.000;5.874;2023-09-18T14:46:31;24.00;99.90
11532;DHT22;5822;51.000;5.874;2023-09-18T14:49:00;24.00;99.90
11532;DHT22;5822;51.000;5.874;2023-09-18T14:51:27;24.00;99.90
11532;DHT22;5822;51.000;5.874;2023-09-18T14:53:54;24.10;99.90
11532;DHT22;5822;51.000;5.874;2023-09-18T14:56:20;24.10;99.90
11532;DHT22;5822;51.000;5.874;2023-09-18T14:58:45;24.10;99.90
11532;DHT22;5822;51.000;5.874;2023-09-18T15:01:11;24.10;99.90
11532;DHT22;5822;51.000;5.874;2023-09-18T15:03:38;24.10;99.90
11532;DHT22;5822;51.000;5.874;2023-09-18T15:06:03;24.00;99.90
11532;DHT22;5822;51.000;5.874;2023-09-18T15:08:49;24.00;99.90
11532;DHT22;5822;51.000;5.874;2023-09-18T15:11:14;24.00;99.90
11532;DHT22;5822;51.000;5.874;2023-09-18T15:13:43;24.00;99.90
11532;DHT22;5822;51.000;5.874;2023-09-18T15:16:08;23.90;99.90
11532;DHT22;5822;51.000;5.874;2023-09-18T15:18:34;23.80;99.90
11532;DHT22;5822;51.000;5.874;2023-09-18T15:21:01;23.80;99.90
11532;DHT22;5822;51.000;5.874;2023-09-18T15:23:27;23.80;99.90
11532;DHT22;5822;51.000;5.874;2023-09-18T15:25:53;23.80;99.90
11532;DHT22;5822;51.000;5.874;2023-09-18T15:28:25;23.70;99.90
11532;DHT22;5822;51.000;5.874;2023-09-18T15:30:53;23.60;99.90
11532;DHT22;5822;51.000;5.874;2023-09-18T15:33:19;23.60;99.90
11532;DHT22;5822;51.000;5.874;2023-09-18T15:35:48;23.60;99.90
11532;DHT22;5822;51.000;5.874;2023-09-18T15:38:14;23.60;99.90
11532;DHT22;5822;51.000;5.874;2023-09-18T15:40:42;23.60;99.90
11532;DHT22;5822;51.000;5.874;2023-09-18T15:43:08;23.60;99.90
11532;DHT22;5822;51.000;5.874;2023-09-18T15:45:33;23.60;99.90
11532;DHT22;5822;51.000;5.874;2023-09-18T15:48:04;23.60;99.90
11532;DHT22;5822;51.000;5.874;2023-09-18T15:50:30;23.50;99.90
11532;DHT22;5822;51.000;5.874;2023-09-18T15:52:56;23.50;99.90
11532;DHT22;5822;51.000;5.874;2023-09-18T15:55:22;23.50;99.90
11532;DHT22;5822;51.000;5.874;2023-09-18T15:57:47;23.50;99.90
11532;DHT22;5822;51.000;5.874;2023-09-18T16:00:13;23.50;99.90
11532;DHT22;5822;51.000;5.874;2023-09-18T16:02:43;23.40;99.90
11532;DHT22;5822;51.000;5.874;2023-09-18T16:05:09;23.40;99.90